Time;durP1;ratioP1;P1;durP2;ratioP2;P2;SDS_P1;SDS_P2;PMS_P1;PMS_P2;Temp;Humidity;BMP_temperature;BMP_pressure;BME280_temperature;BME280_humidity;BME280_pressure;Samples;Min_cycle;Max_cycle;Signal;HPM_P1;HPM_P2
2023/11/23 05:00:24;;;;;;;9.85;6.13;;;8.60;99.90;;;;;;5866428;23;20403;-74
2023/11/23 05:02:51;;;;;;;6.85;4.85;;;8.60;99.90;;;;;;4914194;29;20221;-74
2023/11/23 05:05:18;;;;;;;6.72;4.88;;;8.60;99.90;;;;;;4915970;29;20206;-74
2023/11/23 05:07:44;;;;;;;6.57;6.05;;;8.60;99.90;;;;;;4912378;29;20218;-74
2023/11/23 05:10:11;;;;;;;6.68;4.97;;;8.60;99.90;;;;;;4914367;29;20229;-74
2023/11/23 05:12:38;;;;;;;6.93;5.85;;;8.70;99.90;;;;;;4908847;29;20221;-73
2023/11/23 05:15:06;;;;;;;9.02;5.05;;;8.70;99.90;;;;;;4906980;29;20293;-73
2023/11/23 05:17:34;;;;;;;5.72;5.18;;;8.70;99.90;;;;;;4902205;29;20222;-72
2023/11/23 05:20:01;;;;;;;5.28;4.35;;;8.70;99.90;;;;;;4909379;29;20208;-73
2023/11/23 05:22:28;;;;;;;4.22;3.72;;;8.80;99.90;;;;;;4911710;29;20228;-74
2023/11/23 05:24:55;;;;;;;7.70;6.18;;;8.80;99.90;;;;;;4909951;29;20585;-74
2023/11/23 05:27:21;;;;;;;6.10;4.60;;;8.80;99.90;;;;;;4900381;29;20297;-73
2023/11/23 05:29:48;;;;;;;6.03;5.22;;;8.80;99.90;;;;;;4904518;29;20280;-74
2023/11/23 05:32:15;;;;;;;4.03;3.63;;;8.80;99.90;;;;;;4914433;29;20230;-73
2023/11/23 05:34:44;;;;;;;7.05;5.47;;;8.80;99.90;;;;;;4912799;29;20213;-73
2023/11/23 05:37:11;;;;;;;7.03;5.35;;;8.80;99.90;;;;;;4900998;29;20217;-74
2023/11/23 05:39:38;;;;;;;5.68;5.18;;;8.90;99.90;;;;;;4905716;29;20222;-73
2023/11/23 05:42:05;;;;;;;5.82;5.28;;;8.90;99.90;;;;;;4893095;29;20289;-73
2023/11/23 05:44:32;;;;;;;4.47;4.03;;;8.90;99.90;;;;;;4900005;29;20223;-74
2023/11/23 05:46:58;;;;;;;4.75;3.92;;;8.90;99.90;;;;;;4912376;29;20218;-73
2023/11/23 05:49:25;;;;;;;6.90;4.45;;;8.90;99.90;;;;;;4914602;29;20220;-73
2023/11/23 05:51:53;;;;;;;8.93;5.25;;;8.90;99.90;;;;;;4898520;29;20357;-73
2023/11/23 05:54:20;;;;;;;6.57;5.30;;;8.90;99.90;;;;;;4911333;29;20348;-73
2023/11/23 05:56:46;;;;;;;9.23;6.32;;;8.90;99.90;;;;;;4912994;29;20217;-72
2023/11/23 05:59:13;;;;;;;5.35;4.95;;;9.00;99.90;;;;;;4908451;29;20214;-73
2023/11/23 06:01:40;;;;;;;5.03;4.57;;;9.00;99.90;;;;;;4901335;29;20242;-73
2023/11/23 06:04:07;;;;;;;6.63;5.05;;;9.00;99.90;;;;;;4914034;29;20220;-73
2023/11/23 06:06:33;;;;;;;4.70;4.35;;;9.00;99.90;;;;;;4914045;29;20213;-72
2023/11/23 06:09:01;;;;;;;10.77;5.55;;;9.00;99.90;;;;;;4905859;29;20226;-72
2023/11/23 06:11:28;;;;;;;6.72;5.00;;;9.00;99.90;;;;;;4895186;29;20227;-72
2023/11/23 06:13:55;;;;;;;10.05;5.72;;;9.00;99.90;;;;;;4898820;29;21122;-73
2023/11/23 06:16:21;;;;;;;5.53;5.00;;;9.10;99.90;;;;;;4905381;29;20218;-73
2023/11/23 06:18:48;;;;;;;6.95;5.53;;;9.10;99.90;;;;;;4913731;29;20214;-73
2023/11/23 06:21:16;;;;;;;6.80;4.45;;;9.10;99.90;;;;;;4892626;29;20250;-73
2023/11/23 06:23:43;;;;;;;7.78;5.45;;;9.10;99.90;;;;;;4912413;29;20238;-73
2023/11/23 06:26:11;;;;;;;8.05;5.60;;;9.10;99.90;;;;;;4897464;29;20269;-73
2023/11/23 06:28:37;;;;;;;5.75;4.60;;;9.10;99.90;;;;;;4907055;29;20218;-73
2023/11/23 06:31:04;;;;;;;7.20;5.22;;;9.10;99.90;;;;;;4895019;29;20238;-73
2023/11/23 06:33:31;;;;;;;5.70;3.83;;;9.10;99.90;;;;;;4911126;29;20285;-73
2023/11/23 06:35:58;;;;;;;5.00;3.70;;;9.10;99.90;;;;;;4903147;29;20210;-73
2023/11/23 06:38:24;;;;;;;6.28;3.67;;;9.10;99.90;;;;;;4895674;29;20218;-72
2023/11/23 06:40:51;;;;;;;4.60;4.20;;;9.10;99.90;;;;;;4894763;29;20234;-71
2023/11/23 06:43:19;;;;;;;6.13;4.57;;;9.10;99.90;;;;;;4889250;29;20206;-71
2023/11/23 06:45:46;;;;;;;9.20;5.32;;;9.10;99.90;;;;;;4895475;29;20626;-71
2023/11/23 06:48:12;;;;;;;7.75;6.45;;;9.10;99.90;;;;;;4906189;29;20234;-72
2023/11/23 06:50:39;;;;;;;6.45;5.65;;;9.20;99.90;;;;;;4906726;29;20249;-72
2023/11/23 06:53:06;;;;;;;7.60;4.97;;;9.20;99.90;;;;;;4901603;29;20216;-72
2023/11/23 06:55:33;;;;;;;6.32;5.53;;;9.10;99.90;;;;;;4904357;29;20214;-72
2023/11/23 06:57:59;;;;;;;6.00;4.60;;;9.20;99.90;;;;;;4906698;29;20236;-71
2023/11/23 07:00:27;;;;;;;7.28;4.93;;;9.30;99.90;;;;;;4907894;29;20207;-71
2023/11/23 07:02:56;;;;;;;12.52;7.32;;;9.30;99.90;;;;;;4908826;29;20225;-72
2023/11/23 07:05:24;;;;;;;5.57;4.97;;;9.30;99.90;;;;;;4913624;29;20216;-72
2023/11/23 07:07:52;;;;;;;6.85;5.35;;;9.30;99.90;;;;;;4910264;29;20234;-72
2023/11/23 07:10:19;;;;;;;11.50;6.18;;;9.40;99.90;;;;;;4913118;29;20237;-72
2023/11/23 07:12:46;;;;;;;6.50;5.65;;;9.40;99.90;;;;;;4911231;29;20214;-72
2023/11/23 07:15:14;;;;;;;7.20;5.88;;;9.40;99.90;;;;;;4912853;29;20214;-72
2023/11/23 07:17:42;;;;;;;11.40;7.40;;;9.40;99.90;;;;;;4912819;29;20274;-73
2023/11/23 07:20:12;;;;;;;8.57;5.85;;;9.50;99.90;;;;;;4893768;29;20241;-71
2023/11/23 07:22:39;;;;;;;9.68;6.47;;;9.50;99.90;;;;;;4898162;29;20290;-72
2023/11/23 07:25:08;;;;;;;8.73;5.97;;;9.50;99.90;;;;;;4912768;29;20746;-72
2023/11/23 07:27:38;;;;;;;11.40;6.05;;;9.50;99.90;;;;;;4891844;29;20246;-72
2023/11/23 07:30:07;;;;;;;8.97;7.00;;;9.60;99.90;;;;;;4890197;29;20207;-73
2023/11/23 07:32:33;;;;;;;6.00;5.38;;;9.60;99.90;;;;;;4892537;29;20231;-73
2023/11/23 07:35:02;;;;;;;7.20;5.38;;;9.60;99.90;;;;;;4900351;29;20207;-72
2023/11/23 07:37:30;;;;;;;9.48;5.90;;;9.60;99.90;;;;;;4898370;29;20627;-72
2023/11/23 07:39:56;;;;;;;8.82;6.35;;;9.70;99.90;;;;;;4903779;29;20301;-71
2023/11/23 07:42:23;;;;;;;7.35;6.25;;;9.70;99.90;;;;;;4894620;29;20250;-72
2023/11/23 07:44:50;;;;;;;10.70;5.53;;;9.70;99.90;;;;;;4891057;29;20579;-72
2023/11/23 07:47:17;;;;;;;8.20;5.68;;;9.80;99.90;;;;;;4905210;29;20210;-72
2023/11/23 07:49:45;;;;;;;9.05;5.00;;;9.80;99.90;;;;;;4910744;29;20214;-72
2023/11/23 07:52:13;;;;;;;6.75;5.82;;;9.90;99.90;;;;;;4895516;29;20271;-73
2023/11/23 07:54:39;;;;;;;8.23;5.05;;;9.90;99.90;;;;;;4895013;29;20236;-72
2023/11/23 07:57:06;;;;;;;7.20;5.40;;;9.90;99.90;;;;;;4905040;29;20219;-72
2023/11/23 07:59:36;;;;;;;6.13;5.40;;;9.90;99.90;;;;;;4901557;29;20305;-73
2023/11/23 08:02:04;;;;;;;7.47;4.18;;;9.90;99.90;;;;;;4894725;29;20244;-72
2023/11/23 08:04:31;;;;;;;6.75;5.75;;;10.00;99.90;;;;;;4899215;29;20218;-72
2023/11/23 08:06:57;;;;;;;8.18;6.30;;;10.00;99.90;;;;;;4899920;29;20216;-71
2023/11/23 08:09:25;;;;;;;7.85;6.05;;;10.00;99.90;;;;;;4892979;29;20584;-73
2023/11/23 08:11:52;;;;;;;6.50;5.10;;;10.00;99.90;;;;;;4901622;29;20238;-72
2023/11/23 08:14:19;;;;;;;5.28;4.72;;;10.00;99.90;;;;;;4904093;29;20231;-72
2023/11/23 08:16:46;;;;;;;5.65;5.13;;;10.10;99.90;;;;;;4899882;29;20214;-72
2023/11/23 08:19:14;;;;;;;7.40;4.70;;;10.10;99.90;;;;;;4898671;29;20215;-67
2023/11/23 08:21:41;;;;;;;5.00;4.40;;;10.10;99.90;;;;;;4895360;29;20223;-73
2023/11/23 08:24:08;;;;;;;6.60;4.47;;;10.10;99.90;;;;;;4898442;29;20581;-73
2023/11/23 08:26:36;;;;;;;13.60;6.07;;;10.10;99.90;;;;;;4900535;29;20711;-72
2023/11/23 08:29:05;;;;;;;6.63;5.85;;;10.20;99.90;;;;;;4892309;29;20215;-72
2023/11/23 08:31:31;;;;;;;5.93;4.80;;;10.20;99.90;;;;;;4903296;29;20701;-71
2023/11/23 08:33:58;;;;;;;7.90;4.82;;;10.20;99.90;;;;;;4900919;29;20222;-71
2023/11/23 08:36:25;;;;;;;9.48;6.07;;;10.20;99.90;;;;;;4896208;29;20207;-72
2023/11/23 08:38:51;;;;;;;7.10;4.88;;;10.20;99.90;;;;;;4897847;29;20207;-71
2023/11/23 08:41:18;;;;;;;10.88;5.65;;;10.30;99.90;;;;;;4903541;29;20574;-72
2023/11/23 08:43:48;;;;;;;7.40;5.03;;;10.30;99.90;;;;;;4899970;29;20214;-71
2023/11/23 08:46:14;;;;;;;4.35;4.00;;;10.30;99.90;;;;;;4899616;29;20673;-71
2023/11/23 08:48:42;;;;;;;3.45;3.15;;;10.30;99.90;;;;;;4898439;29;20211;-72
2023/11/23 08:51:09;;;;;;;4.90;4.40;;;10.30;99.90;;;;;;4903564;29;20609;-72
2023/11/23 08:53:36;;;;;;;3.83;3.42;;;10.40;99.90;;;;;;4899992;29;20215;-72
2023/11/23 08:56:02;;;;;;;4.85;3.95;;;10.40;99.90;;;;;;4894478;29;20259;-70
2023/11/23 08:58:29;;;;;;;10.52;6.10;;;10.40;99.90;;;;;;4894260;29;20207;-73
2023/11/23 09:00:57;;;;;;;5.35;2.67;;;10.50;99.90;;;;;;4894838;29;20242;-73
2023/11/23 09:03:24;;;;;;;3.47;3.28;;;10.40;99.90;;;;;;4894816;29;20212;-72
2023/11/23 09:05:50;;;;;;;3.25;3.08;;;10.40;99.90;;;;;;4893180;29;20317;-73
2023/11/23 09:08:17;;;;;;;3.97;3.67;;;10.50;99.90;;;;;;4895319;29;20218;-73
2023/11/23 09:10:44;;;;;;;5.00;4.38;;;10.50;99.90;;;;;;4894124;29;20238;-73
2023/11/23 09:13:11;;;;;;;3.92;3.60;;;10.50;99.90;;;;;;4891279;29;20298;-72
2023/11/23 09:15:37;;;;;;;5.97;3.10;;;10.50;99.90;;;;;;4893001;29;20226;-72
2023/11/23 09:18:07;;;;;;;5.60;3.63;;;10.50;99.90;;;;;;4890407;29;20230;-72
2023/11/23 09:20:34;;;;;;;4.53;4.13;;;10.60;99.90;;;;;;4896078;29;20645;-73
2023/11/23 09:23:02;;;;;;;4.35;4.03;;;10.60;99.90;;;;;;4900046;29;20218;-73
2023/11/23 09:25:33;;;;;;;3.25;3.05;;;10.60;99.90;;;;;;4899071;29;20302;-72
2023/11/23 09:28:00;;;;;;;6.22;3.72;;;10.60;99.90;;;;;;4899186;29;20215;-72
2023/11/23 09:30:26;;;;;;;2.90;2.80;;;10.60;99.90;;;;;;4899367;29;20211;-72
2023/11/23 09:32:53;;;;;;;4.45;3.33;;;10.70;99.90;;;;;;4943024;23;20323;-73
2023/11/23 09:35:21;;;;;;;3.90;3.53;;;10.70;99.90;;;;;;4934317;29;20202;-73
2023/11/23 09:37:49;;;;;;;3.35;3.10;;;10.60;99.90;;;;;;4932824;29;20217;-73
2023/11/23 09:40:18;;;;;;;7.50;3.05;;;10.70;99.90;;;;;;4932764;29;20205;-73
2023/11/23 09:42:48;;;;;;;4.13;3.03;;;10.70;99.90;;;;;;4931658;29;20237;-72
2023/11/23 09:45:19;;;;;;;8.50;4.20;;;10.70;99.90;;;;;;4932804;29;20300;-74
2023/11/23 09:47:49;;;;;;;4.43;3.33;;;10.80;99.90;;;;;;4935844;28;20206;-73
2023/11/23 09:50:17;;;;;;;8.38;3.50;;;10.70;99.90;;;;;;4931230;29;20217;-73
2023/11/23 09:52:46;;;;;;;4.55;3.25;;;10.80;99.90;;;;;;4934825;29;20312;-73
2023/11/23 09:55:16;;;;;;;3.90;3.70;;;10.80;99.90;;;;;;4930303;29;20221;-73
2023/11/23 09:57:45;;;;;;;7.50;2.90;;;10.80;99.90;;;;;;4935628;29;20245;-73
2023/11/23 10:00:14;;;;;;;3.67;3.33;;;10.80;99.90;;;;;;4934315;29;20220;-74
2023/11/23 10:02:43;;;;;;;3.30;3.10;;;10.80;99.90;;;;;;4938279;29;20225;-72
2023/11/23 10:05:13;;;;;;;5.05;3.08;;;10.80;99.90;;;;;;4931001;29;20756;-71
2023/11/23 10:07:42;;;;;;;4.03;3.72;;;10.80;99.90;;;;;;4936093;29;20293;-71
2023/11/23 10:10:11;;;;;;;5.35;3.10;;;10.80;99.90;;;;;;4934403;29;20218;-72
2023/11/23 10:12:38;;;;;;;14.52;3.20;;;10.80;99.90;;;;;;4934951;29;20268;-72
2023/11/23 10:15:07;;;;;;;5.85;3.25;;;10.80;99.90;;;;;;4932524;29;20214;-72
2023/11/23 10:17:34;;;;;;;3.00;2.80;;;10.80;99.90;;;;;;4931129;29;20268;-71
2023/11/23 10:20:10;;;;;;;4.13;2.30;;;10.80;99.90;;;;;;4930176;29;20206;-74
2023/11/23 10:22:37;;;;;;;4.45;2.83;;;10.90;99.90;;;;;;4932979;29;20517;-71
2023/11/23 10:25:05;;;;;;;6.82;3.10;;;10.90;99.90;;;;;;4934352;29;20217;-71
2023/11/23 10:27:33;;;;;;;4.70;2.55;;;10.90;99.90;;;;;;4934984;29;20218;-70
2023/11/23 10:30:01;;;;;;;5.30;2.95;;;11.00;99.90;;;;;;4930400;29;20687;-70
2023/11/23 10:32:30;;;;;;;3.90;2.20;;;11.00;99.90;;;;;;4933346;29;20743;-70
2023/11/23 10:35:03;;;;;;;3.90;3.47;;;11.00;99.90;;;;;;4933942;29;20202;-72
2023/11/23 10:37:33;;;;;;;3.17;2.83;;;11.00;99.90;;;;;;4934157;29;20214;-72
2023/11/23 10:40:01;;;;;;;3.30;3.10;;;11.00;99.90;;;;;;4933104;29;20574;-72
2023/11/23 10:42:31;;;;;;;4.30;3.08;;;11.00;99.90;;;;;;4930659;29;20226;-72
2023/11/23 10:44:59;;;;;;;4.55;3.40;;;11.00;99.90;;;;;;4930151;29;20305;-72
2023/11/23 10:47:29;;;;;;;11.30;6.18;;;11.00;99.90;;;;;;4932677;29;20210;-72
2023/11/23 10:50:00;;;;;;;5.00;4.43;;;11.00;99.90;;;;;;4933375;29;20673;-72
2023/11/23 10:52:28;;;;;;;8.48;3.85;;;11.00;99.90;;;;;;4929216;29;20257;-72
2023/11/23 10:54:55;;;;;;;8.52;3.58;;;11.00;99.90;;;;;;4931116;29;20929;-72
2023/11/23 10:57:23;;;;;;;8.60;4.53;;;11.00;99.90;;;;;;4934703;29;20209;-73
2023/11/23 10:59:51;;;;;;;10.82;4.60;;;11.00;99.90;;;;;;4933000;29;20206;-70
2023/11/23 11:02:20;;;;;;;4.20;3.60;;;11.00;99.90;;;;;;4930681;29;20236;-69
2023/11/23 11:04:47;;;;;;;6.32;3.33;;;11.10;99.90;;;;;;4933799;29;20676;-70
2023/11/23 11:07:14;;;;;;;2.80;2.60;;;11.10;99.90;;;;;;4933025;29;20304;-71
2023/11/23 11:09:41;;;;;;;3.10;2.85;;;11.00;99.90;;;;;;4932839;29;20216;-73
2023/11/23 11:12:12;;;;;;;3.35;2.33;;;11.10;99.90;;;;;;4932264;29;20861;-72
2023/11/23 11:14:49;;;;;;;3.50;3.20;;;11.10;99.90;;;;;;4926339;29;20297;-71
2023/11/23 11:17:16;;;;;;;2.80;2.60;;;11.10;99.90;;;;;;4929154;29;20214;-72
2023/11/23 11:19:47;;;;;;;3.67;3.38;;;11.10;99.90;;;;;;4931925;29;20479;-72
2023/11/23 11:22:14;;;;;;;4.60;1.75;;;11.10;99.90;;;;;;4930438;29;20249;-71
2023/11/23 11:24:42;;;;;;;2.60;2.40;;;11.10;99.90;;;;;;4929013;29;20756;-71
2023/11/23 11:27:10;;;;;;;2.40;1.83;;;11.10;99.90;;;;;;4933150;29;20837;-71
2023/11/23 11:29:37;;;;;;;4.22;2.42;;;11.20;99.90;;;;;;4931484;29;20220;-72
2023/11/23 11:32:05;;;;;;;4.45;2.00;;;11.20;99.90;;;;;;4931907;29;20241;-72
2023/11/23 11:34:36;;;;;;;2.83;2.60;;;11.20;99.90;;;;;;4931930;29;21012;-72
2023/11/23 11:37:06;;;;;;;6.85;1.95;;;11.20;99.90;;;;;;4933544;29;20552;-72
2023/11/23 11:39:35;;;;;;;3.70;2.40;;;11.20;99.90;;;;;;4933194;29;20585;-73
2023/11/23 11:42:03;;;;;;;5.85;2.25;;;11.20;99.90;;;;;;4931462;29;20663;-73
2023/11/23 11:44:30;;;;;;;2.75;2.55;;;11.30;99.90;;;;;;4925646;29;20259;-72
2023/11/23 11:46:57;;;;;;;6.77;3.03;;;11.30;99.90;;;;;;4933265;29;20293;-72
2023/11/23 11:49:24;;;;;;;4.18;2.40;;;11.30;99.90;;;;;;4933149;29;20602;-72
2023/11/23 11:51:51;;;;;;;1.70;1.67;;;11.30;99.90;;;;;;4932253;29;20278;-74
2023/11/23 11:54:21;;;;;;;4.43;1.90;;;11.40;99.90;;;;;;4933176;29;20234;-72
2023/11/23 11:56:48;;;;;;;1.67;1.58;;;11.30;99.90;;;;;;4931239;29;20214;-69
2023/11/23 11:59:18;;;;;;;7.43;4.60;;;11.50;99.90;;;;;;4930182;29;20218;-70
2023/11/23 12:01:46;;;;;;;3.72;1.95;;;11.50;99.90;;;;;;4931049;29;21230;-72
2023/11/23 12:04:15;;;;;;;5.33;2.33;;;11.50;99.90;;;;;;4931013;29;20234;-72
2023/11/23 12:06:44;;;;;;;1.30;1.13;;;11.50;99.90;;;;;;4931694;29;20581;-73
2023/11/23 12:09:14;;;;;;;2.30;1.90;;;11.50;99.90;;;;;;4929938;29;20618;-72
2023/11/23 12:11:43;;;;;;;2.33;2.13;;;11.50;99.90;;;;;;4932104;29;20717;-73
2023/11/23 12:14:11;;;;;;;3.28;2.70;;;11.40;99.90;;;;;;4929088;29;20522;-72
2023/11/23 12:16:38;;;;;;;4.30;2.83;;;11.50;99.90;;;;;;4931081;29;20428;-73
2023/11/23 12:19:16;;;;;;;3.40;3.20;;;11.40;99.90;;;;;;4932339;29;20496;-72
2023/11/23 12:21:42;;;;;;;2.37;2.13;;;11.50;99.90;;;;;;4929926;29;20211;-71
2023/11/23 12:24:10;;;;;;;2.85;1.73;;;11.50;99.90;;;;;;4931554;29;20490;-72
2023/11/23 12:26:38;;;;;;;2.47;2.30;;;11.50;99.90;;;;;;4931982;29;20535;-72
2023/11/23 12:29:06;;;;;;;4.43;2.30;;;11.50;99.90;;;;;;4929319;29;20283;-72
2023/11/23 12:31:35;;;;;;;1.93;1.90;;;11.50;99.90;;;;;;4932852;29;20473;-73
2023/11/23 12:34:02;;;;;;;2.63;2.42;;;11.50;99.90;;;;;;4932483;29;20847;-72
2023/11/23 12:36:28;;;;;;;1.53;1.53;;;11.50;99.90;;;;;;4931603;29;20265;-72
2023/11/23 12:38:56;;;;;;;5.03;1.87;;;11.50;99.90;;;;;;4931497;29;20529;-72
2023/11/23 12:41:23;;;;;;;3.25;2.20;;;11.50;99.90;;;;;;4932743;29;20474;-72
2023/11/23 12:43:50;;;;;;;6.13;2.70;;;11.50;99.90;;;;;;4925808;29;20586;-72
2023/11/23 12:46:18;;;;;;;2.87;2.23;;;11.50;99.90;;;;;;4929419;29;20486;-72
2023/11/23 12:48:44;;;;;;;2.97;1.77;;;11.60;99.90;;;;;;4931709;29;20478;-72
2023/11/23 12:51:12;;;;;;;6.90;2.07;;;11.60;99.90;;;;;;4930510;29;20480;-72
2023/11/23 12:53:39;;;;;;;2.75;1.98;;;11.60;99.90;;;;;;4931400;29;20504;-72
2023/11/23 12:56:07;;;;;;;1.50;1.50;;;11.60;99.90;;;;;;4934392;29;20238;-72
2023/11/23 12:58:33;;;;;;;6.70;2.40;;;11.60;99.90;;;;;;4936642;29;20465;-71
2023/11/23 13:01:00;;;;;;;2.03;1.87;;;11.60;99.90;;;;;;4934642;29;20477;-73
2023/11/23 13:03:28;;;;;;;2.40;2.17;;;11.70;99.90;;;;;;4932444;29;20992;-72
2023/11/23 13:05:55;;;;;;;4.83;2.13;;;11.70;99.90;;;;;;4937330;29;20222;-72
2023/11/23 13:08:22;;;;;;;3.47;2.40;;;11.70;99.90;;;;;;4940624;29;20466;-72
2023/11/23 13:10:49;;;;;;;2.83;1.43;;;11.70;99.90;;;;;;4941409;29;20495;-73
2023/11/23 13:13:15;;;;;;;1.60;1.50;;;11.60;99.90;;;;;;4934219;29;20509;-72
2023/11/23 13:15:42;;;;;;;1.30;1.20;;;11.60;99.90;;;;;;4932999;29;20566;-72
2023/11/23 13:18:09;;;;;;;3.83;2.10;;;11.60;99.90;;;;;;4934552;29;20486;-72
2023/11/23 13:20:37;;;;;;;2.20;1.90;;;11.60;99.90;;;;;;4936932;29;21061;-72
2023/11/23 13:23:06;;;;;;;3.07;1.73;;;11.60;99.90;;;;;;4936036;29;21029;-72
2023/11/23 13:25:33;;;;;;;9.50;1.92;;;11.60;99.90;;;;;;4940355;29;20550;-73
2023/11/23 13:28:00;;;;;;;3.33;1.35;;;11.60;99.90;;;;;;4935306;29;20328;-71
2023/11/23 13:30:27;;;;;;;1.97;1.77;;;11.60;99.90;;;;;;4933585;29;20210;-72
2023/11/23 13:32:56;;;;;;;3.40;2.40;;;11.50;99.90;;;;;;4935383;29;20902;-72
2023/11/23 13:35:23;;;;;;;1.70;1.70;;;11.50;99.90;;;;;;4934947;29;20548;-72
2023/11/23 13:37:51;;;;;;;1.87;1.77;;;11.50;99.90;;;;;;4936250;29;20466;-72
2023/11/23 13:40:18;;;;;;;4.57;1.65;;;11.50;99.90;;;;;;4934965;29;20464;-72
2023/11/23 13:42:46;;;;;;;1.70;1.60;;;11.50;99.90;;;;;;4934823;29;20246;-70
2023/11/23 13:45:13;;;;;;;1.60;1.60;;;11.50;99.90;;;;;;4932499;29;20548;-72
2023/11/23 13:47:40;;;;;;;2.83;1.90;;;11.50;99.90;;;;;;4933544;29;20996;-72
2023/11/23 13:50:09;;;;;;;2.60;1.90;;;11.40;99.90;;;;;;4934892;29;20936;-72
2023/11/23 13:52:36;;;;;;;1.47;1.47;;;11.40;99.90;;;;;;4932986;29;20525;-72
2023/11/23 13:55:05;;;;;;;1.77;1.67;;;11.40;99.90;;;;;;4933608;29;20912;-72
2023/11/23 13:57:32;;;;;;;4.72;1.80;;;11.40;99.90;;;;;;4934382;29;20474;-73
2023/11/23 14:00:00;;;;;;;1.40;1.40;;;11.40;99.90;;;;;;4934082;29;20645;-72
2023/11/23 14:02:26;;;;;;;1.23;1.23;;;11.40;99.90;;;;;;4936233;29;20843;-72
2023/11/23 14:04:55;;;;;;;1.20;1.10;;;11.40;99.90;;;;;;4934982;29;20210;-72
2023/11/23 14:07:22;;;;;;;4.05;1.80;;;11.40;99.90;;;;;;4932252;29;20317;-72
2023/11/23 14:09:48;;;;;;;1.47;1.47;;;11.40;99.90;;;;;;4932408;29;20211;-72
2023/11/23 14:12:16;;;;;;;1.80;1.60;;;11.40;99.90;;;;;;4931002;29;20466;-72
2023/11/23 14:14:43;;;;;;;1.42;0.90;;;11.40;99.90;;;;;;4928003;29;20217;-72
2023/11/23 14:17:12;;;;;;;1.05;1.05;;;11.40;99.90;;;;;;4929694;29;20206;-73
2023/11/23 14:19:39;;;;;;;0.97;0.90;;;11.40;99.90;;;;;;4931497;29;20285;-73
2023/11/23 14:22:06;;;;;;;1.98;1.00;;;11.40;99.90;;;;;;4932656;29;20568;-72
2023/11/23 14:24:33;;;;;;;0.80;0.80;;;11.40;99.90;;;;;;4935168;29;20646;-72
2023/11/23 14:27:00;;;;;;;0.70;0.70;;;11.40;99.90;;;;;;4932196;29;20234;-71
2023/11/23 14:29:29;;;;;;;7.20;1.67;;;11.40;99.90;;;;;;4931631;29;20297;-72
2023/11/23 14:31:56;;;;;;;0.73;0.73;;;11.40;99.90;;;;;;4937062;29;20468;-72
2023/11/23 14:34:23;;;;;;;1.27;1.00;;;11.40;99.90;;;;;;4932254;29;20234;-73
2023/11/23 14:36:52;;;;;;;0.87;0.67;;;11.40;99.90;;;;;;4933332;29;20582;-72
2023/11/23 14:39:23;;;;;;;0.43;0.43;;;11.40;99.90;;;;;;4934154;29;20478;-72
2023/11/23 14:41:50;;;;;;;0.95;0.95;;;11.30;99.90;;;;;;4935006;29;20466;-73
2023/11/23 14:44:17;;;;;;;1.00;1.00;;;11.40;99.90;;;;;;4933918;29;20225;-73
2023/11/23 14:46:48;;;;;;;0.83;0.83;;;11.40;99.90;;;;;;4934118;29;20965;-74
2023/11/23 14:49:15;;;;;;;2.50;1.20;;;11.30;99.90;;;;;;4932073;29;20837;-73
2023/11/23 14:51:45;;;;;;;1.60;1.50;;;11.30;99.90;;;;;;4928506;29;20206;-73
2023/11/23 14:54:12;;;;;;;1.40;1.40;;;11.40;99.90;;;;;;4934336;29;20238;-72
2023/11/23 14:56:40;;;;;;;1.73;1.58;;;11.30;99.90;;;;;;4934039;29;20677;-69
2023/11/23 14:59:07;;;;;;;1.67;1.58;;;11.30;99.90;;;;;;4932288;29;20214;-73
2023/11/23 15:01:35;;;;;;;3.13;1.67;;;11.40;99.90;;;;;;4929600;29;20219;-73
2023/11/23 15:04:03;;;;;;;2.83;1.20;;;11.40;99.90;;;;;;4931518;29;20225;-73
2023/11/23 15:06:30;;;;;;;1.23;1.10;;;11.40;99.90;;;;;;4933554;29;20463;-73
2023/11/23 15:08:57;;;;;;;1.35;1.20;;;11.30;99.90;;;;;;4932081;29;20241;-73
2023/11/23 15:11:23;;;;;;;0.90;0.90;;;11.40;99.90;;;;;;4934190;29;20214;-72
2023/11/23 15:13:50;;;;;;;1.23;1.23;;;11.30;99.90;;;;;;4936433;29;20279;-74
2023/11/23 15:16:17;;;;;;;0.90;0.90;;;11.40;99.90;;;;;;4933076;29;20207;-74
2023/11/23 15:18:44;;;;;;;1.10;1.10;;;11.40;99.90;;;;;;4928075;29;20207;-74
2023/11/23 15:21:12;;;;;;;0.80;0.80;;;11.40;99.90;;;;;;4933711;29;20485;-74
2023/11/23 15:23:39;;;;;;;0.70;0.70;;;11.40;99.90;;;;;;4932651;29;20449;-74
2023/11/23 15:26:07;;;;;;;1.00;1.00;;;11.30;99.90;;;;;;4935464;29;20815;-75
2023/11/23 15:28:34;;;;;;;1.07;0.57;;;11.30;99.90;;;;;;4934989;29;20588;-74
2023/11/23 15:31:01;;;;;;;0.53;0.53;;;11.40;99.90;;;;;;4937105;29;20481;-75
2023/11/23 15:33:30;;;;;;;0.73;0.73;;;11.30;99.90;;;;;;4938747;29;20552;-74
2023/11/23 15:35:57;;;;;;;0.95;0.95;;;11.30;99.90;;;;;;4937038;29;20248;-74
2023/11/23 15:38:25;;;;;;;1.23;1.20;;;11.30;99.90;;;;;;4936470;29;20214;-74
2023/11/23 15:40:52;;;;;;;1.17;1.00;;;11.30;99.90;;;;;;4933779;29;20474;-74
2023/11/23 15:43:19;;;;;;;1.83;1.05;;;11.30;99.90;;;;;;4933255;29;20811;-74
2023/11/23 15:45:46;;;;;;;1.38;1.27;;;11.30;99.90;;;;;;4934602;29;20205;-74
2023/11/23 15:48:13;;;;;;;1.00;1.00;;;11.30;99.90;;;;;;4933719;29;20238;-74
2023/11/23 15:50:41;;;;;;;1.45;1.00;;;11.30;99.90;;;;;;4934390;29;20592;-74
2023/11/23 15:53:07;;;;;;;0.90;0.70;;;11.40;99.90;;;;;;4936545;28;20257;-74
2023/11/23 15:55:37;;;;;;;0.80;0.80;;;11.30;99.90;;;;;;4930852;29;20585;-74
2023/11/23 15:58:04;;;;;;;1.37;1.17;;;11.30;99.90;;;;;;4933344;29;20245;-73
2023/11/23 16:00:30;;;;;;;0.77;0.77;;;11.30;99.90;;;;;;4933515;29;20489;-74
2023/11/23 16:02:57;;;;;;;1.27;1.27;;;11.30;99.90;;;;;;4932563;29;20509;-74
2023/11/23 16:05:26;;;;;;;1.10;1.10;;;11.30;99.90;;;;;;4934863;29;20202;-74
2023/11/23 16:07:52;;;;;;;0.90;0.90;;;11.30;99.90;;;;;;4937235;29;20547;-73
2023/11/23 16:10:19;;;;;;;0.90;0.90;;;11.30;99.90;;;;;;4931868;29;20282;-73
2023/11/23 16:12:48;;;;;;;0.98;0.98;;;11.30;99.90;;;;;;4934552;29;20490;-74
2023/11/23 16:15:14;;;;;;;0.85;0.85;;;11.30;99.90;;;;;;4937421;29;20215;-74
2023/11/23 16:17:41;;;;;;;14.60;6.05;;;11.30;99.90;;;;;;4935020;29;20225;-74
2023/11/23 16:20:14;;;;;;;1.40;1.40;;;11.30;99.90;;;;;;4935143;29;20638;-74
2023/11/23 16:22:41;;;;;;;1.43;0.90;;;11.30;99.90;;;;;;4932386;29;20498;-74
2023/11/23 16:25:10;;;;;;;1.50;1.40;;;11.30;99.90;;;;;;4934547;29;20529;-74
2023/11/23 16:27:37;;;;;;;0.80;0.80;;;11.30;99.90;;;;;;4936804;29;20499;-74
2023/11/23 16:30:08;;;;;;;1.47;0.87;;;11.30;99.90;;;;;;4935773;29;20205;-74
2023/11/23 16:32:35;;;;;;;1.50;1.50;;;11.30;99.90;;;;;;4940250;29;20574;-74
2023/11/23 16:35:03;;;;;;;1.13;1.03;;;11.30;99.90;;;;;;4937594;29;20228;-74
2023/11/23 16:37:29;;;;;;;1.00;1.00;;;11.30;99.90;;;;;;4937275;29;20465;-74
2023/11/23 16:39:56;;;;;;;1.08;1.08;;;11.40;99.90;;;;;;4930385;29;20474;-74
2023/11/23 16:42:23;;;;;;;4.60;0.85;;;11.30;99.90;;;;;;4935335;29;20202;-73
2023/11/23 16:44:50;;;;;;;1.33;1.00;;;11.40;99.90;;;;;;4937579;29;20213;-73
2023/11/23 16:47:18;;;;;;;1.33;0.93;;;11.40;99.90;;;;;;4937389;29;20462;-73
2023/11/23 16:49:47;;;;;;;4.57;1.73;;;11.30;99.90;;;;;;4926782;29;20205;-72
2023/11/23 16:52:14;;;;;;;1.00;1.00;;;11.30;99.90;;;;;;4933062;29;20952;-72
2023/11/23 16:54:41;;;;;;;1.37;1.27;;;11.30;99.90;;;;;;4929639;29;20314;-73
2023/11/23 16:57:08;;;;;;;1.00;0.90;;;11.30;99.90;;;;;;4936685;29;20473;-74
2023/11/23 16:59:34;;;;;;;7.00;1.38;;;11.40;99.90;;;;;;4931101;29;20221;-73
2023/11/23 17:02:01;;;;;;;0.88;0.88;;;11.40;99.90;;;;;;4937495;29;20789;-73
2023/11/23 17:04:29;;;;;;;0.75;0.75;;;11.40;99.90;;;;;;4936709;29;20724;-73
2023/11/23 17:06:57;;;;;;;2.00;1.85;;;11.40;99.90;;;;;;4938216;29;20214;-73
2023/11/23 17:09:24;;;;;;;1.30;1.05;;;11.50;99.90;;;;;;4938088;29;20221;-73
2023/11/23 17:11:52;;;;;;;2.90;1.45;;;11.50;99.90;;;;;;4940064;29;20385;-75
2023/11/23 17:14:19;;;;;;;2.08;0.60;;;11.50;99.90;;;;;;4936642;29;20257;-75
2023/11/23 17:16:46;;;;;;;1.30;1.30;;;11.50;99.90;;;;;;4933698;29;20297;-75
2023/11/23 17:19:13;;;;;;;1.60;0.63;;;11.50;99.90;;;;;;4931679;29;20238;-73
2023/11/23 17:21:45;;;;;;;2.78;0.65;;;11.30;99.90;;;;;;4934455;29;20217;-73
2023/11/23 17:24:11;;;;;;;2.75;0.60;;;10.80;99.90;;;;;;4927552;29;20227;-75
2023/11/23 17:26:40;;;;;;;0.35;0.35;;;10.30;99.90;;;;;;4931694;29;20206;-74
2023/11/23 17:29:09;;;;;;;1.30;0.73;;;10.10;99.90;;;;;;4934402;29;20695;-74
2023/11/23 17:31:41;;;;;;;1.00;0.77;;;9.90;99.90;;;;;;4933327;29;20661;-73
2023/11/23 17:34:07;;;;;;;1.60;1.08;;;9.80;99.90;;;;;;4934207;29;20230;-75
2023/11/23 17:36:34;;;;;;;3.22;1.00;;;9.70;99.90;;;;;;4928685;29;20264;-74
2023/11/23 17:39:03;;;;;;;0.45;0.45;;;9.60;99.90;;;;;;4929360;29;20312;-72
2023/11/23 17:41:32;;;;;;;1.08;0.43;;;9.60;99.90;;;;;;4929224;29;20291;-73
2023/11/23 17:43:59;;;;;;;2.65;1.48;;;9.50;99.90;;;;;;4930672;29;20645;-73
2023/11/23 17:46:26;;;;;;;2.17;1.08;;;9.50;99.90;;;;;;4931107;29;20213;-73
2023/11/23 17:48:53;;;;;;;0.70;0.70;;;9.50;99.90;;;;;;4932338;29;20209;-72